createdAt,value
2023-05-12T00:01:17.465Z,101099.13
2023-05-12T00:03:44.612Z,101083.06
2023-05-12T00:06:12.376Z,101094.34
2023-05-12T00:08:39.323Z,101077.91
2023-05-12T00:11:06.319Z,101094.41
2023-05-12T00:13:33.315Z,101077.84
2023-05-12T00:16:00.580Z,101078.81
2023-05-12T00:18:28.647Z,101070.22
2023-05-12T00:20:56.771Z,101079.63
2023-05-12T00:23:23.769Z,101096.16
2023-05-12T00:25:50.952Z,101102.16
2023-05-12T00:28:18.885Z,101088.22
2023-05-12T00:30:46.082Z,101110.69
2023-05-12T00:33:13.411Z,101104.47
2023-05-12T00:35:40.337Z,101112.34
2023-05-12T00:38:07.390Z,101080.31
2023-05-12T00:40:34.441Z,101116.66
2023-05-12T00:43:01.524Z,101092.75
2023-05-12T00:45:29.733Z,101090.44
2023-05-12T00:47:57.547Z,101099.59
2023-05-12T00:50:25.553Z,101110.88
2023-05-12T00:52:53.124Z,101113.16
2023-05-12T00:55:20.593Z,101096.31
2023-05-12T00:57:47.868Z,101089.41
2023-05-12T01:00:16.505Z,101111.56
2023-05-12T01:02:45.971Z,101115.25
2023-05-12T01:05:13.264Z,101122.66
2023-05-12T01:07:41.940Z,101095.75
2023-05-12T01:10:21.197Z,101131.66
2023-05-12T01:12:48.642Z,101124.56
2023-05-12T01:15:17.391Z,101121.50
2023-05-12T01:17:55.949Z,101108.31
2023-05-12T01:20:27.030Z,101127.06
2023-05-12T01:22:55.774Z,101143.38
2023-05-12T01:25:25.249Z,101137.72
2023-05-12T01:27:53.601Z,101138.72
2023-05-12T01:30:23.391Z,101107.06
2023-05-12T01:32:51.362Z,101142.28
2023-05-12T01:35:19.294Z,101137.97
2023-05-12T01:37:53.880Z,101137.97
2023-05-12T01:40:22.004Z,101129.75
2023-05-12T01:42:49.272Z,101124.31
2023-05-12T01:45:16.371Z,101112.16
2023-05-12T01:47:43.438Z,101134.09
2023-05-12T01:50:11.084Z,101110.88
2023-05-12T01:52:38.745Z,101149.09
2023-05-12T01:55:09.885Z,101132.16
2023-05-12T01:57:50.708Z,101115.06
2023-05-12T02:00:19.251Z,101145.28
2023-05-12T02:02:48.664Z,101134.97
2023-05-12T02:05:17.413Z,101113.59
2023-05-12T02:07:46.981Z,101142.34
2023-05-12T02:10:13.969Z,101146.19
2023-05-12T02:12:40.955Z,101166.22
2023-05-12T02:15:08.389Z,101163.50
2023-05-12T02:17:37.694Z,101141.63
2023-05-12T02:20:06.935Z,101148.31
2023-05-12T02:22:33.928Z,101154.56
2023-05-12T02:25:01.101Z,101152.41
2023-05-12T02:27:28.263Z,101159.84
2023-05-12T02:29:55.699Z,101153.97
2023-05-12T02:32:22.952Z,101128.94
2023-05-12T02:34:50.638Z,101143.78
2023-05-12T02:37:17.763Z,101159.84
2023-05-12T02:39:44.768Z,101144.88
2023-05-12T02:42:11.750Z,101153.06
2023-05-12T02:44:39.270Z,101151.22
2023-05-12T02:47:06.492Z,101140.56
2023-05-12T02:49:33.425Z,101148.75
2023-05-12T02:52:00.503Z,101131.31
2023-05-12T02:54:27.636Z,101111.56
2023-05-12T02:56:56.556Z,101154.44
2023-05-12T02:59:23.545Z,101127.94
2023-05-12T03:01:50.478Z,101143.78
2023-05-12T03:04:18.609Z,101097.13
2023-05-12T03:06:45.809Z,101142.69
2023-05-12T03:09:13.428Z,101139.50
2023-05-12T03:11:40.811Z,101130.78
2023-05-12T03:14:07.734Z,101131.66
2023-05-12T03:16:34.820Z,101112.59
2023-05-12T03:19:02.754Z,101141.91
2023-05-12T03:21:29.889Z,101153.59
2023-05-12T03:23:57.968Z,101151.88
2023-05-12T03:26:25.994Z,101149.34
2023-05-12T03:28:53.313Z,101155.94
2023-05-12T03:31:20.323Z,101141.22
2023-05-12T03:33:47.416Z,101148.34
2023-05-12T03:36:14.336Z,101110.28
2023-05-12T03:38:41.228Z,101141.94
2023-05-12T03:41:08.592Z,101155.31
2023-05-12T03:43:36.107Z,101138.38
2023-05-12T03:46:03.981Z,101146.25
2023-05-12T03:48:31.114Z,101162.44
2023-05-12T03:50:59.080Z,101141.94
2023-05-12T03:53:26.138Z,101153.25
2023-05-12T03:55:53.273Z,101123.69
2023-05-12T03:58:20.167Z,101145.03
2023-05-12T04:00:49.742Z,101165.94
2023-05-12T04:03:17.543Z,101150.84
2023-05-12T04:05:44.706Z,101169.03
2023-05-12T04:08:11.801Z,101141.38
2023-05-12T04:10:42.504Z,101165.59
2023-05-12T04:13:09.448Z,101150.25
2023-05-12T04:15:36.484Z,101110.94
2023-05-12T04:18:04.043Z,101157.00
2023-05-12T04:20:31.115Z,101185.41
2023-05-12T04:22:58.228Z,101147.56
2023-05-12T04:25:25.322Z,101151.03
2023-05-12T04:27:52.471Z,101191.81
2023-05-12T04:30:19.810Z,101183.56
2023-05-12T04:32:47.254Z,101185.66
2023-05-12T04:35:14.594Z,101181.09
2023-05-12T04:37:41.667Z,101184.16
2023-05-12T04:40:09.409Z,101195.22
2023-05-12T04:42:36.563Z,101149.00
2023-05-12T04:45:04.025Z,101171.59
2023-05-12T04:47:32.305Z,101173.25
2023-05-12T04:49:59.263Z,101218.84
2023-05-12T04:52:26.498Z,101168.97
2023-05-12T04:54:53.506Z,101169.13
2023-05-12T04:57:20.457Z,101228.09
2023-05-12T04:59:47.422Z,101200.84
2023-05-12T05:02:14.517Z,101199.84
2023-05-12T05:04:41.462Z,101138.16
2023-05-12T05:07:08.557Z,101180.34
2023-05-12T05:09:36.683Z,101230.06
2023-05-12T05:12:04.118Z,101212.88
2023-05-12T05:14:31.208Z,101248.53
2023-05-12T05:16:58.288Z,101230.81
2023-05-12T05:19:40.394Z,101234.03
2023-05-12T05:22:12.564Z,101228.75
2023-05-12T05:24:39.523Z,101251.97
2023-05-12T05:27:06.418Z,101246.69
2023-05-12T05:29:33.411Z,101264.50
2023-05-12T05:32:00.687Z,101224.25
2023-05-12T05:34:27.871Z,101265.84
2023-05-12T05:36:55.611Z,101258.31
2023-05-12T05:39:22.893Z,101247.41
2023-05-12T05:41:49.797Z,101255.28
2023-05-12T05:44:16.705Z,101259.16
2023-05-12T05:46:43.658Z,101288.44
2023-05-12T05:49:10.657Z,101306.66
2023-05-12T05:51:37.607Z,101273.97
2023-05-12T05:54:04.570Z,101261.13
2023-05-12T05:56:33.240Z,101237.00
2023-05-12T05:59:03.063Z,101253.00
2023-05-12T06:01:30.730Z,101289.41
2023-05-12T06:03:58.194Z,101286.72
2023-05-12T06:06:25.200Z,101279.31
2023-05-12T06:08:52.129Z,101293.84
2023-05-12T06:11:19.063Z,101291.81
2023-05-12T06:13:46.021Z,101296.16
2023-05-12T06:16:12.975Z,101302.63
2023-05-12T06:18:39.929Z,101260.19
2023-05-12T06:21:06.911Z,101306.97
2023-05-12T06:23:33.954Z,101306.16
2023-05-12T06:26:00.915Z,101303.66
2023-05-12T06:28:28.189Z,101268.47
2023-05-12T06:30:55.477Z,101283.72
2023-05-12T06:33:22.457Z,101293.88
2023-05-12T06:35:50.290Z,101285.88
2023-05-12T06:38:17.257Z,101275.78
2023-05-12T06:40:45.011Z,101297.00
2023-05-12T06:43:12.939Z,101292.56
2023-05-12T06:45:43.566Z,101306.66
2023-05-12T06:48:10.689Z,101299.25
2023-05-12T06:50:37.725Z,101290.53
2023-05-12T06:53:06.385Z,101297.50
2023-05-12T06:55:33.277Z,101314.72
2023-05-12T06:58:00.248Z,101303.84
2023-05-12T07:00:27.280Z,101297.94
2023-05-12T07:02:54.364Z,101304.56
2023-05-12T07:05:21.568Z,101294.03
2023-05-12T07:07:48.932Z,101321.41
2023-05-12T07:10:16.153Z,101313.97
2023-05-12T07:12:43.221Z,101321.66
2023-05-12T07:15:10.651Z,101303.28
2023-05-12T07:17:37.678Z,101299.31
2023-05-12T07:20:05.801Z,101295.66
2023-05-12T07:22:32.827Z,101304.88
2023-05-12T07:24:59.938Z,101293.72
2023-05-12T07:27:27.084Z,101300.91
2023-05-12T07:29:54.322Z,101303.06
2023-05-12T07:32:21.290Z,101317.84
2023-05-12T07:34:48.276Z,101306.09
2023-05-12T07:37:15.184Z,101314.84
2023-05-12T07:39:42.113Z,101289.06
2023-05-12T07:42:09.721Z,101312.44
2023-05-12T07:44:36.664Z,101302.69
2023-05-12T07:47:03.729Z,101301.25
2023-05-12T07:49:30.628Z,101300.66
2023-05-12T07:51:57.535Z,101311.81
2023-05-12T07:54:24.507Z,101306.06
2023-05-12T07:56:51.666Z,101303.47
2023-05-12T07:59:18.578Z,101309.50
2023-05-12T08:01:45.675Z,101312.78
2023-05-12T08:04:12.999Z,101306.59
2023-05-12T08:06:40.036Z,101300.72
2023-05-12T08:09:07.480Z,101309.13
2023-05-12T08:11:34.508Z,101308.84
2023-05-12T08:14:01.503Z,101315.53
2023-05-12T08:16:28.448Z,101317.38
2023-05-12T08:18:55.503Z,101301.56
2023-05-12T08:21:22.527Z,101309.84
2023-05-12T08:23:49.623Z,101317.94
2023-05-12T08:26:16.526Z,101304.31
2023-05-12T08:28:43.628Z,101311.81
2023-05-12T08:31:10.660Z,101303.69
2023-05-12T08:33:37.902Z,101311.50
2023-05-12T08:36:05.360Z,101318.72
2023-05-12T08:38:33.142Z,101317.13
2023-05-12T08:41:06.163Z,101320.06
2023-05-12T08:43:43.023Z,101321.88
2023-05-12T08:46:10.281Z,101303.69
2023-05-12T08:48:40.155Z,101315.38
2023-05-12T08:51:13.292Z,101303.00
2023-05-12T08:53:42.072Z,101326.72
2023-05-12T08:58:45.670Z,101303.34
2023-05-12T09:01:14.662Z,101313.25
2023-05-12T09:03:42.300Z,101328.38
2023-05-12T09:06:11.486Z,101326.38
2023-05-12T09:08:40.777Z,101322.22
2023-05-12T09:11:12.910Z,101312.09
2023-05-12T09:13:54.919Z,101324.03
2023-05-12T09:16:29.182Z,101313.16
2023-05-12T09:18:58.741Z,101328.16
2023-05-12T09:21:26.907Z,101329.25
2023-05-12T09:23:59.908Z,101297.63
2023-05-12T09:26:28.637Z,101332.13
2023-05-12T09:29:08.278Z,101335.56
2023-05-12T09:31:35.518Z,101329.97
2023-05-12T09:34:10.235Z,101329.97
2023-05-12T09:36:37.466Z,101336.13
2023-05-12T09:39:09.536Z,101308.44
2023-05-12T09:41:43.498Z,101330.06
2023-05-12T09:44:14.982Z,101324.69
2023-05-12T09:46:41.902Z,101328.97
2023-05-12T09:49:09.124Z,101338.44
2023-05-12T09:51:36.115Z,101337.84
2023-05-12T09:54:05.611Z,101339.28
2023-05-12T09:56:38.259Z,101321.16
2023-05-12T09:59:05.928Z,101329.03
2023-05-12T10:01:33.165Z,101306.13
2023-05-12T10:04:00.187Z,101323.06
2023-05-12T10:06:30.394Z,101324.13
2023-05-12T10:09:33.984Z,101335.28
2023-05-12T10:12:03.139Z,101306.53
2023-05-12T10:14:31.497Z,101329.06
2023-05-12T10:16:59.874Z,101313.94
2023-05-12T10:19:28.911Z,101316.41
2023-05-12T10:21:57.786Z,101316.06
2023-05-12T10:24:28.630Z,101325.28
2023-05-12T10:27:03.841Z,101309.75
2023-05-12T10:29:32.885Z,101316.41
2023-05-12T10:32:03.816Z,101315.00
2023-05-12T10:34:37.217Z,101292.53
2023-05-12T10:37:11.155Z,101307.59
2023-05-12T10:39:51.498Z,101318.22
2023-05-12T10:42:25.544Z,101321.28
2023-05-12T10:44:54.605Z,101318.81
2023-05-12T10:47:37.548Z,101319.88
2023-05-12T10:50:05.532Z,101292.88
2023-05-12T10:52:32.454Z,101287.94
2023-05-12T10:55:04.645Z,101313.22
2023-05-12T10:57:33.305Z,101305.53
2023-05-12T11:00:02.590Z,101325.38
2023-05-12T11:02:34.201Z,101319.03
2023-05-12T11:05:12.865Z,101308.59
2023-05-12T11:07:41.866Z,101321.78
2023-05-12T11:10:10.674Z,101322.34
2023-05-12T11:12:37.837Z,101308.69
2023-05-12T11:15:06.915Z,101319.13
2023-05-12T11:17:37.704Z,101305.47
2023-05-12T11:20:05.481Z,101311.41
2023-05-12T11:22:32.367Z,101306.59
2023-05-12T11:25:09.153Z,101317.63
2023-05-12T11:27:39.206Z,101320.22
2023-05-12T11:30:07.282Z,101329.06
2023-05-12T11:32:34.214Z,101328.50
2023-05-12T11:35:10.662Z,101320.38
2023-05-12T11:37:39.879Z,101326.66
2023-05-12T11:40:21.993Z,101320.81
2023-05-12T11:42:52.220Z,101318.88
2023-05-12T11:45:29.956Z,101333.09
2023-05-12T11:48:12.244Z,101335.13
2023-05-12T11:50:45.088Z,101331.19
2023-05-12T11:53:15.605Z,101326.50
2023-05-12T11:55:52.860Z,101333.00
2023-05-12T11:58:30.561Z,101331.03
2023-05-12T12:01:09.996Z,101331.19
2023-05-12T12:03:48.722Z,101299.34
2023-05-12T12:06:16.414Z,101318.34
2023-05-12T12:08:55.216Z,101330.31
2023-05-12T12:11:24.030Z,101323.97
2023-05-12T12:13:56.581Z,101329.22
2023-05-12T12:16:33.190Z,101322.72
2023-05-12T12:19:00.676Z,101333.84
2023-05-12T12:21:27.636Z,101338.34
2023-05-12T12:23:54.528Z,101333.34
2023-05-12T12:26:22.934Z,101332.00
2023-05-12T12:28:50.732Z,101323.47
2023-05-12T12:31:17.718Z,101329.38
2023-05-12T12:33:44.649Z,101333.28
2023-05-12T12:36:11.624Z,101326.25
2023-05-12T12:38:38.605Z,101333.69
2023-05-12T12:41:07.176Z,101310.72
2023-05-12T12:43:34.273Z,101336.63
2023-05-12T12:46:01.800Z,101340.44
2023-05-12T12:48:28.896Z,101338.50
2023-05-12T12:50:56.429Z,101326.78
2023-05-12T12:53:23.566Z,101345.28
2023-05-12T12:55:50.557Z,101345.22
2023-05-12T12:58:17.485Z,101330.53
2023-05-12T13:00:44.472Z,101350.38
2023-05-12T13:03:11.527Z,101351.00
2023-05-12T13:05:38.810Z,101334.19
2023-05-12T13:08:05.841Z,101350.72
2023-05-12T13:10:33.425Z,101352.94
2023-05-12T13:13:00.714Z,101344.16
2023-05-12T13:15:27.935Z,101338.03
2023-05-12T13:17:55.053Z,101314.09
2023-05-12T13:20:22.132Z,101323.56
2023-05-12T13:22:49.281Z,101332.25
2023-05-12T13:25:16.380Z,101332.41
2023-05-12T13:27:43.261Z,101329.16
2023-05-12T13:30:12.847Z,101312.84
2023-05-12T13:32:40.798Z,101317.69
2023-05-12T13:35:08.765Z,101311.38
2023-05-12T13:37:35.671Z,101313.81
2023-05-12T13:40:05.054Z,101316.53
2023-05-12T13:42:32.474Z,101295.50
2023-05-12T13:44:59.472Z,101313.97
2023-05-12T13:47:26.973Z,101316.19
2023-05-12T13:49:54.057Z,101310.84
2023-05-12T13:52:21.005Z,101297.03
2023-05-12T13:54:47.908Z,101291.97
2023-05-12T13:57:15.008Z,101300.44
2023-05-12T13:59:41.987Z,101289.31
2023-05-12T14:02:11.481Z,101304.25
2023-05-12T14:04:38.497Z,101299.81
2023-05-12T14:07:08.339Z,101299.72
2023-05-12T14:09:35.840Z,101298.78
2023-05-12T14:12:04.409Z,101307.13
2023-05-12T14:14:31.501Z,101304.41
2023-05-12T14:16:58.357Z,101283.44
2023-05-12T14:19:25.269Z,101297.38
2023-05-12T14:21:52.179Z,101297.22
2023-05-12T14:24:19.076Z,101288.66
2023-05-12T14:26:45.946Z,101296.72
2023-05-12T14:29:13.329Z,101288.56
2023-05-12T14:31:40.448Z,101290.34
2023-05-12T14:34:09.181Z,101293.50
2023-05-12T14:36:36.097Z,101290.88
2023-05-12T14:39:03.105Z,101298.81
2023-05-12T14:41:29.952Z,101303.66
2023-05-12T14:43:58.371Z,101312.97
2023-05-12T14:46:25.626Z,101312.97
2023-05-12T14:48:52.677Z,101310.69
2023-05-12T14:51:19.621Z,101304.69
2023-05-12T14:53:46.554Z,101289.56
2023-05-12T14:56:13.512Z,101295.09
2023-05-12T14:58:40.481Z,101299.00
2023-05-12T15:01:09.343Z,101287.97
2023-05-12T15:03:36.610Z,101303.22
2023-05-12T15:06:07.090Z,101269.81
2023-05-12T15:08:34.865Z,101299.22
2023-05-12T15:11:02.432Z,101298.53
2023-05-12T15:13:29.403Z,101298.38
2023-05-12T15:15:57.002Z,101284.72
2023-05-12T15:18:24.257Z,101281.53
2023-05-12T15:20:51.724Z,101284.56
2023-05-12T15:23:18.710Z,101285.03
2023-05-12T15:25:45.626Z,101301.72
2023-05-12T15:28:12.537Z,101310.56
2023-05-12T15:30:39.419Z,101305.50
2023-05-12T15:33:07.005Z,101307.09
2023-05-12T15:35:34.569Z,101307.75
2023-05-12T15:38:01.455Z,101300.91
2023-05-12T15:40:30.645Z,101309.53
2023-05-12T15:42:57.956Z,101308.03
2023-05-12T15:45:24.945Z,101311.13
2023-05-12T15:47:52.019Z,101302.84
2023-05-12T15:50:22.589Z,101296.50
2023-05-12T15:52:50.009Z,101301.56
2023-05-12T15:55:17.316Z,101311.25
2023-05-12T15:57:44.486Z,101298.50
2023-05-12T16:00:12.325Z,101294.72
2023-05-12T16:02:42.117Z,101308.28
2023-05-12T16:05:09.695Z,101307.59
2023-05-12T16:07:36.724Z,101304.22
2023-05-12T16:10:04.058Z,101302.22
2023-05-12T16:12:31.214Z,101300.19
2023-05-12T16:14:58.229Z,101304.22
2023-05-12T16:17:25.310Z,101305.50
2023-05-12T16:19:53.509Z,101311.69
2023-05-12T16:22:20.637Z,101296.19
2023-05-12T16:24:47.808Z,101310.63
2023-05-12T16:27:14.830Z,101303.09
2023-05-12T16:29:45.404Z,101291.81
2023-05-12T16:32:13.020Z,101296.97
2023-05-12T16:34:39.977Z,101284.06
2023-05-12T16:37:06.902Z,101296.50
2023-05-12T16:39:35.720Z,101295.09
2023-05-12T16:42:03.060Z,101291.88
2023-05-12T16:44:30.031Z,101279.06
2023-05-12T16:46:57.074Z,101291.97
2023-05-12T16:49:24.026Z,101299.88
2023-05-12T16:51:51.015Z,101289.91
2023-05-12T16:54:18.431Z,101279.72
2023-05-12T16:56:45.460Z,101298.59
2023-05-12T16:59:12.426Z,101292.59
2023-05-12T17:01:39.692Z,101286.91
2023-05-12T17:04:07.919Z,101310.03
2023-05-12T17:06:34.979Z,101295.50
2023-05-12T17:09:02.126Z,101291.44
2023-05-12T17:11:29.144Z,101306.28
2023-05-12T17:13:56.085Z,101316.59
2023-05-12T17:16:23.139Z,101299.22
2023-05-12T17:21:20.167Z,101306.59
2023-05-12T17:23:47.183Z,101296.16
2023-05-12T17:26:14.593Z,101314.38
2023-05-12T17:28:41.631Z,101306.66
2023-05-12T17:31:08.644Z,101302.06
2023-05-12T17:33:35.629Z,101306.22
2023-05-12T17:36:11.659Z,101314.81
2023-05-12T17:38:40.670Z,101322.22
2023-05-12T17:41:07.595Z,101315.38
2023-05-12T17:43:34.524Z,101313.84
2023-05-12T17:46:01.606Z,101318.81
2023-05-12T17:48:32.915Z,101309.09
2023-05-12T17:51:00.887Z,101303.66
2023-05-12T17:53:27.821Z,101331.41
2023-05-12T17:55:54.838Z,101332.13
2023-05-12T17:58:21.783Z,101319.81
2023-05-12T18:03:15.898Z,101331.34
2023-05-12T18:05:46.691Z,101337.19
2023-05-12T18:08:13.626Z,101323.00
2023-05-12T18:10:41.344Z,101347.84
2023-05-12T18:13:08.307Z,101340.38
2023-05-12T18:15:35.306Z,101346.69
2023-05-12T18:18:02.668Z,101356.81
2023-05-12T18:20:29.627Z,101343.94
2023-05-12T18:22:56.743Z,101355.09
2023-05-12T18:25:23.806Z,101355.47
2023-05-12T18:27:51.322Z,101333.72
2023-05-12T18:30:18.389Z,101352.06
2023-05-12T18:32:45.406Z,101353.63
2023-05-12T18:35:12.404Z,101367.66
2023-05-12T18:37:39.355Z,101358.06
2023-05-12T18:40:08.327Z,101358.72
2023-05-12T18:42:35.971Z,101358.59
2023-05-12T18:45:03.233Z,101341.75
2023-05-12T18:47:30.187Z,101367.28
2023-05-12T18:49:57.164Z,101351.84
2023-05-12T18:52:24.106Z,101371.16
2023-05-12T18:54:50.984Z,101374.28
2023-05-12T18:57:18.279Z,101370.50
2023-05-12T18:59:45.597Z,101378.34
2023-05-12T19:02:12.516Z,101384.81
2023-05-12T19:04:39.566Z,101389.09
2023-05-12T19:07:09.402Z,101385.47
2023-05-12T19:09:37.274Z,101388.56
2023-05-12T19:12:05.964Z,101380.44
2023-05-12T19:14:33.229Z,101394.31
2023-05-12T19:17:00.297Z,101396.53
2023-05-12T19:19:27.433Z,101390.41
2023-05-12T19:21:54.436Z,101390.53
2023-05-12T19:24:25.451Z,101397.88
2023-05-12T19:26:52.506Z,101401.28
2023-05-12T19:29:19.485Z,101404.63
2023-05-12T19:31:46.439Z,101409.56
2023-05-12T19:34:13.372Z,101413.66
2023-05-12T19:36:40.430Z,101412.78
2023-05-12T19:39:07.292Z,101402.63
2023-05-12T19:41:34.189Z,101398.81
2023-05-12T19:44:01.327Z,101402.81
2023-05-12T19:46:29.537Z,101411.41
2023-05-12T19:48:56.610Z,101410.31
2023-05-12T19:51:23.537Z,101408.81
2023-05-12T19:53:50.479Z,101422.47
2023-05-12T19:56:18.733Z,101426.16
2023-05-12T19:58:45.711Z,101430.38
2023-05-12T20:01:12.657Z,101423.97
2023-05-12T20:03:39.702Z,101437.47
2023-05-12T20:06:06.736Z,101433.31
2023-05-12T20:08:33.631Z,101431.75
2023-05-12T20:11:00.606Z,101429.41
2023-05-12T20:13:27.646Z,101437.94
2023-05-12T20:15:54.924Z,101440.81
2023-05-12T20:18:23.687Z,101438.53
2023-05-12T20:20:51.018Z,101441.59
2023-05-12T20:23:18.001Z,101428.47
2023-05-12T20:25:44.980Z,101425.16
2023-05-12T20:28:12.002Z,101435.78
2023-05-12T20:30:39.085Z,101451.53
2023-05-12T20:33:06.116Z,101449.28
2023-05-12T20:35:33.166Z,101439.28
2023-05-12T20:38:00.140Z,101457.53
2023-05-12T20:40:27.562Z,101426.72
2023-05-12T20:42:54.463Z,101460.72
2023-05-12T20:45:21.893Z,101465.19
2023-05-12T20:47:49.359Z,101461.84
2023-05-12T20:50:16.929Z,101458.84
2023-05-12T20:52:46.158Z,101435.19
2023-05-12T20:55:13.113Z,101461.13
2023-05-12T20:57:40.214Z,101449.25
2023-05-12T21:00:11.600Z,101464.84
2023-05-12T21:02:38.802Z,101456.44
2023-05-12T21:05:06.259Z,101460.31
2023-05-12T21:07:33.250Z,101453.75
2023-05-12T21:10:00.870Z,101472.38
2023-05-12T21:12:28.027Z,101460.66
2023-05-12T21:14:55.189Z,101476.63
2023-05-12T21:17:22.383Z,101471.09
2023-05-12T21:19:49.338Z,101474.09
2023-05-12T21:22:16.390Z,101480.88
2023-05-12T21:24:43.327Z,101485.19
2023-05-12T21:27:11.476Z,101470.44
2023-05-12T21:29:38.402Z,101485.63
2023-05-12T21:32:05.809Z,101470.72
2023-05-12T21:34:33.753Z,101482.31
2023-05-12T21:37:00.900Z,101484.06
2023-05-12T21:39:27.958Z,101468.13
2023-05-12T21:41:55.044Z,101492.41
2023-05-12T21:44:21.989Z,101464.53
2023-05-12T21:46:48.920Z,101501.41
2023-05-12T21:49:15.985Z,101490.94
2023-05-12T21:51:42.894Z,101481.44
2023-05-12T21:54:09.881Z,101483.34
2023-05-12T21:56:36.984Z,101494.84
2023-05-12T21:59:04.045Z,101503.41
2023-05-12T22:01:31.449Z,101508.13
2023-05-12T22:03:59.254Z,101494.81
2023-05-12T22:06:26.295Z,101495.81
2023-05-12T22:08:54.282Z,101481.91
2023-05-12T22:11:21.595Z,101497.84
2023-05-12T22:13:48.934Z,101479.06
2023-05-12T22:16:16.391Z,101502.13
2023-05-12T22:18:43.650Z,101494.81
2023-05-12T22:21:12.061Z,101507.59
2023-05-12T22:23:39.690Z,101494.38
2023-05-12T22:26:06.644Z,101508.13
2023-05-12T22:28:33.563Z,101511.00
2023-05-12T22:31:00.602Z,101500.13
2023-05-12T22:33:27.562Z,101490.94
2023-05-12T22:35:58.423Z,101495.53
2023-05-12T22:38:25.289Z,101502.28
2023-05-12T22:40:52.160Z,101496.69
2023-05-12T22:43:19.342Z,101489.06
2023-05-12T22:45:52.725Z,101485.03
2023-05-12T22:48:23.371Z,101513.84
2023-05-12T22:50:54.374Z,101512.72
2023-05-12T22:53:21.259Z,101515.84
2023-05-12T22:55:48.312Z,101518.84
2023-05-12T22:58:15.228Z,101518.69
2023-05-12T23:00:42.234Z,101527.84
2023-05-12T23:03:09.353Z,101522.53
2023-05-12T23:05:36.289Z,101519.19
2023-05-12T23:08:03.199Z,101513.13
2023-05-12T23:10:30.677Z,101507.81
2023-05-12T23:12:57.812Z,101522.97
2023-05-12T23:15:24.832Z,101511.34
2023-05-12T23:17:51.940Z,101520.94
2023-05-12T23:20:19.250Z,101511.44
2023-05-12T23:22:46.322Z,101512.91
2023-05-12T23:25:13.277Z,101517.78
2023-05-12T23:27:40.202Z,101513.47
2023-05-12T23:30:07.860Z,101519.03
2023-05-12T23:32:34.954Z,101521.03
2023-05-12T23:35:02.040Z,101513.28
2023-05-12T23:37:28.941Z,101514.69
2023-05-12T23:39:57.387Z,101510.06
2023-05-12T23:42:24.334Z,101513.38
2023-05-12T23:44:51.350Z,101506.16
2023-05-12T23:47:18.253Z,101501.72
2023-05-12T23:49:45.398Z,101513.44
2023-05-12T23:52:12.296Z,101528.16
2023-05-12T23:54:39.245Z,101524.84
2023-05-12T23:57:06.384Z,101512.06
2023-05-12T23:59:33.268Z,101512.84
